Melvin L King — WUT9921 — position and weather

sailwx.info

Track history (hours):
 
Tides and Currents Weather Stations Pressure Air Temp Water Temp Dewpoint Dewpoint Depression Visibility Wind Speed Wind Dir Waves Ship Positions

Melvin L King

Owner: YAZOO RIVER TOWING INC, VICKSBURG, MS. More information available from US FCC via Universal Licensing System and Coast Guard Vessel Documentation Center.

Last reported at 2017-Aug-25 04:16 UTC. Time now 2017-Nov-23 18:38 UTC.
Position N 31°31' W 091°30'.
Warning: this ship's position is months out of date.

Length 21 m; draft 2.5 m.

Type: Tow > 200 m length. MMSI: 367005760.

Date/timePositionNaut miles runAvg speedWind from/ knotsBaromVisibWave heightAir tempDewpointWater temp
2017-Aug-25 04:16N 31°31' W 091°30'35 7.5
2017-Aug-24 23:33N 31°60' W 091°05'6 7.6
2017-Aug-24 22:42N 32°06' W 091°06'2 7.6
2017-Aug-24 22:30N 32°08' W 091°06'4 8.6
2017-Aug-24 22:01N 32°07' W 091°01'5 9.1
2017-Aug-24 21:30N 32°12' W 090°60'5 9.2
2017-Aug-24 21:00N 32°16' W 090°58'4 9.0
2017-Aug-24 20:30N 32°19' W 090°54'2 4.9
2017-Aug-24 20:00N 32°21' W 090°53'1 2.7
2017-Aug-24 19:30N 32°23' W 090°53'0 0.0
2017-Aug-24 19:00N 32°23' W 090°53'0 0.3
2017-Aug-24 18:31N 32°23' W 090°52'0 0.2
2017-Aug-24 18:00N 32°23' W 090°53'0 0.1
2017-Aug-24 17:30N 32°23' W 090°53'0 0.0
2017-Aug-24 17:00N 32°23' W 090°53'0 0.2
2017-Aug-24 16:31N 32°23' W 090°53'0 0.0
2017-Aug-24 16:00N 32°23' W 090°53'0 0.0
2017-Aug-24 15:30N 32°23' W 090°53'0 0.0
2017-Aug-24 15:00N 32°23' W 090°53'0 0.0
2017-Aug-24 14:30N 32°23' W 090°53'0 0.2
2017-Aug-24 14:00N 32°23' W 090°53'0 0.0
2017-Aug-24 13:30N 32°23' W 090°53'0 0.0
2017-Aug-24 13:00N 32°23' W 090°53'0 0.2
2017-Aug-24 12:30N 32°23' W 090°53'0 0.2
2017-Aug-24 12:00N 32°23' W 090°53'0 0.0
2017-Aug-24 11:31N 32°23' W 090°53'0 0.0
2017-Aug-24 11:00N 32°23' W 090°53'0 0.0
2017-Aug-24 10:30N 32°23' W 090°53'0 0.0
2017-Aug-24 10:01N 32°23' W 090°53'0 0.0
2017-Aug-24 09:30N 32°23' W 090°53'0 0.0
2017-Aug-24 09:00N 32°23' W 090°53'0 0.0
2017-Aug-24 08:30N 32°23' W 090°53'0 0.0
2017-Aug-24 08:00N 32°23' W 090°53'0 0.0
2017-Aug-24 07:30N 32°23' W 090°53'0 0.0
2017-Aug-24 07:00N 32°23' W 090°53'0 0.0
2017-Aug-24 06:30N 32°23' W 090°53'0 0.0
2017-Aug-24 06:00N 32°23' W 090°53'0 0.0
2017-Aug-24 05:30N 32°23' W 090°53'0 0.0
2017-Aug-24 05:00N 32°23' W 090°53'0 0.0
2017-Aug-24 04:30N 32°23' W 090°53'0 0.0
2017-Aug-24 04:00N 32°23' W 090°53'0 0.0
2017-Aug-24 03:30N 32°23' W 090°53'0 0.0
2017-Aug-24 03:00N 32°23' W 090°53'0 0.0
2017-Aug-24 02:30N 32°23' W 090°53'0 0.0
2017-Aug-24 02:00N 32°23' W 090°53'0 0.0
2017-Aug-24 01:30N 32°23' W 090°53'0 0.0
2017-Aug-24 01:00N 32°23' W 090°53'0 0.0
2017-Aug-24 00:30N 32°23' W 090°53'0 0.0
2017-Aug-24 00:00N 32°23' W 090°53'1 1.7
2017-Aug-23 23:30N 32°23' W 090°54'0 0.0
2017-Aug-23 23:00N 32°23' W 090°54'0 0.1
2017-Aug-23 22:30N 32°23' W 090°54'0 0.0
2017-Aug-23 22:00N 32°23' W 090°54'0 0.3
2017-Aug-23 21:30N 32°23' W 090°53'1 1.7
2017-Aug-23 21:00N 32°23' W 090°52'0 0.1
2017-Aug-23 20:30N 32°23' W 090°53'0 0.2
2017-Aug-23 20:00N 32°23' W 090°53'0 0.1
2017-Aug-23 19:30N 32°23' W 090°53'0 0.1
2017-Aug-23 19:00N 32°23' W 090°53'0 0.1
2017-Aug-23 18:30N 32°23' W 090°53'0 0.1
2017-Aug-23 18:00N 32°23' W 090°53'0 0.0
2017-Aug-23 17:30N 32°23' W 090°53'0 0.0
2017-Aug-23 17:00N 32°23' W 090°53'0 0.0
2017-Aug-23 16:30N 32°23' W 090°53'0 0.0
2017-Aug-23 16:00N 32°23' W 090°53'0 0.0
2017-Aug-23 15:30N 32°23' W 090°53'0 0.0
2017-Aug-23 15:00N 32°23' W 090°53'0 0.2
2017-Aug-23 14:00N 32°23' W 090°52'0 0.2
2017-Aug-23 13:30N 32°23' W 090°53'1 1.8
2017-Aug-23 13:00N 32°23' W 090°54'0 0.2
2017-Aug-23 12:30N 32°23' W 090°53'1 1.7
2017-Aug-23 12:00N 32°23' W 090°53'0 0.0
2017-Aug-23 11:30N 32°23' W 090°53'0 0.0
2017-Aug-23 11:00N 32°23' W 090°53'0 0.0
2017-Aug-23 10:31N 32°23' W 090°53'0 0.0
2017-Aug-23 10:00N 32°23' W 090°53'0 0.0
2017-Aug-23 09:30N 32°23' W 090°53'0 0.0
2017-Aug-23 09:00N 32°23' W 090°53'0 0.0
2017-Aug-23 08:30N 32°23' W 090°53'0 0.0
2017-Aug-23 08:00N 32°23' W 090°53'0 0.0
2017-Aug-23 07:30N 32°23' W 090°53'0 0.0
2017-Aug-23 07:00N 32°23' W 090°53'0 0.0
2017-Aug-23 06:30N 32°23' W 090°53'0 0.0
2017-Aug-23 06:00N 32°23' W 090°53'0 0.0
2017-Aug-23 05:30N 32°23' W 090°53'0 0.0
2017-Aug-23 05:00N 32°23' W 090°53'0 0.0
2017-Aug-23 04:31N 32°23' W 090°53'0 0.0
2017-Aug-23 04:00N 32°23' W 090°53'0 0.0
2017-Aug-23 03:30N 32°23' W 090°53'0 0.0
2017-Aug-23 03:00N 32°23' W 090°53'0 0.0
2017-Aug-23 02:30N 32°23' W 090°53'0 0.0
2017-Aug-23 02:00N 32°23' W 090°53'0 0.0
2017-Aug-23 01:30N 32°23' W 090°53'0 0.0
2017-Aug-23 01:00N 32°23' W 090°53'0 0.0
2017-Aug-23 00:30N 32°23' W 090°53'0 0.0
2017-Aug-23 00:00N 32°23' W 090°53'0 0.0
2017-Aug-22 23:30N 32°23' W 090°53'0 0.0
2017-Aug-22 23:00N 32°23' W 090°53'1 1.2
2017-Aug-22 22:30N 32°22' W 090°53'1 1.9
2017-Aug-22 22:00N 32°23' W 090°54'0 0.2
2017-Aug-22 21:30N 32°23' W 090°53'0 0.2
2017-Aug-22 21:00N 32°23' W 090°54'1 2.0
2017-Aug-22 20:30N 32°23' W 090°52'0 0.3
2017-Aug-22 20:00N 32°23' W 090°53'0 0.1
2017-Aug-22 19:30N 32°23' W 090°53'0 0.0
2017-Aug-22 19:01N 32°23' W 090°53'0 0.0
2017-Aug-22 18:30N 32°23' W 090°53'0 0.0
2017-Aug-22 18:00N 32°23' W 090°53'0 0.0
2017-Aug-22 17:30N 32°23' W 090°53'0 0.0
2017-Aug-22 17:00N 32°23' W 090°53'0 0.0
2017-Aug-22 16:30N 32°23' W 090°53'0 0.8
2017-Aug-22 16:00N 32°22' W 090°52'1 1.9
2017-Aug-22 15:30N 32°23' W 090°54'0 0.1
2017-Aug-22 15:00N 32°23' W 090°54'1 1.7
2017-Aug-22 14:30N 32°23' W 090°53'0 0.0
2017-Aug-22 14:00N 32°23' W 090°53'0 0.0
2017-Aug-22 13:30N 32°23' W 090°53'0 0.2
2017-Aug-22 13:01N 32°23' W 090°53'0 0.2
2017-Aug-22 12:30N 32°23' W 090°53'0 0.1
2017-Aug-22 12:00N 32°23' W 090°53'0 0.0
2017-Aug-22 11:30N 32°23' W 090°53'0 0.0
2017-Aug-22 11:00N 32°23' W 090°53'0 0.0
2017-Aug-22 10:30N 32°23' W 090°53'0 0.0
2017-Aug-22 10:00N 32°23' W 090°53'0 0.0
2017-Aug-22 09:30N 32°23' W 090°53'0 0.0
2017-Aug-22 09:00N 32°23' W 090°53'0 0.0
2017-Aug-22 08:30N 32°23' W 090°53'0 0.0
2017-Aug-22 08:00N 32°23' W 090°53'0 0.0
2017-Aug-22 07:30N 32°23' W 090°53'0 0.0
2017-Aug-22 07:00N 32°23' W 090°53'0 0.0
2017-Aug-22 06:30N 32°23' W 090°53'0 0.0
2017-Aug-22 06:00N 32°23' W 090°53'0 0.0
2017-Aug-22 05:30N 32°23' W 090°53'0 0.0
2017-Aug-22 05:00N 32°23' W 090°53'0 0.0
2017-Aug-22 04:30N 32°23' W 090°53'0 0.0
2017-Aug-22 04:00N 32°23' W 090°53'0 0.0
2017-Aug-22 03:30N 32°23' W 090°53'0 0.0
2017-Aug-22 03:00N 32°23' W 090°53'0 0.0
2017-Aug-22 02:30N 32°23' W 090°53'0 0.0
2017-Aug-22 02:00N 32°23' W 090°53'0 0.0
2017-Aug-22 01:30N 32°23' W 090°53'0 0.0
2017-Aug-22 01:00N 32°23' W 090°53'0 0.0
2017-Aug-22 00:30N 32°23' W 090°53'0 0.0
2017-Aug-22 00:00N 32°23' W 090°53'0 0.0
2017-Aug-21 23:30N 32°23' W 090°53'0 0.0
2017-Aug-21 23:00N 32°23' W 090°53'0 0.0
2017-Aug-21 22:30N 32°23' W 090°53'0 0.0
2017-Aug-21 22:00N 32°23' W 090°53'0 0.0
2017-Aug-21 21:30N 32°23' W 090°53'0 0.0
2017-Aug-21 21:00N 32°23' W 090°53'0 0.0
2017-Aug-21 20:30N 32°23' W 090°53'0 0.0
2017-Aug-21 20:00N 32°23' W 090°53'0 0.0
2017-Aug-21 19:30N 32°23' W 090°53'0 0.0
2017-Aug-21 19:00N 32°23' W 090°53'0 0.0
2017-Aug-21 18:30N 32°23' W 090°53'0 0.0
2017-Aug-21 18:00N 32°23' W 090°53'0 0.0
2017-Aug-21 17:30N 32°23' W 090°53'0 0.0
2017-Aug-21 17:00N 32°23' W 090°53'0 0.0
2017-Aug-21 16:30N 32°23' W 090°53'0 0.0
2017-Aug-21 16:01N 32°23' W 090°53'0 0.0
2017-Aug-21 15:30N 32°23' W 090°53'0 0.3
2017-Aug-21 15:01N 32°23' W 090°53'0 0.2
2017-Aug-21 14:30N 32°23' W 090°53'0 0.1
2017-Aug-21 14:00N 32°23' W 090°53'0 0.0
2017-Aug-21 13:30N 32°23' W 090°53'0 0.0
2017-Aug-21 13:00N 32°23' W 090°53'0 0.0
2017-Aug-21 12:30N 32°23' W 090°53'0 0.0
2017-Aug-21 12:00N 32°23' W 090°53'0 0.0
2017-Aug-21 11:30N 32°23' W 090°53'1 2.1
2017-Aug-21 11:01N 32°22' W 090°53'2 3.8
2017-Aug-21 10:30N 32°20' W 090°54'3 5.6
2017-Aug-21 10:00N 32°21' W 090°57'3 6.0
2017-Aug-21 09:30N 32°22' W 091°00'3 6.7
2017-Aug-21 09:00N 32°26' W 091°01'4 7.5
2017-Aug-21 08:31N 32°27' W 091°05'3 6.9
2017-Aug-21 08:00N 32°30' W 091°07'4 7.6
2017-Aug-21 07:30N 32°34' W 091°06'4 7.4
2017-Aug-21 07:00N 32°37' W 091°09'  
Track history (hours):
 
Tides and Currents Weather Stations Pressure Air Temp Water Temp Dewpoint Dewpoint Depression Visibility Wind Speed Wind Dir Waves Ship Positions

Melvin L King

Owner: YAZOO RIVER TOWING INC, VICKSBURG, MS. More information available from US FCC via Universal Licensing System and Coast Guard Vessel Documentation Center.

Last reported at 2017-Aug-25 04:16 UTC. Time now 2017-Nov-23 18:38 UTC.
Position N 31°31' W 091°30'.
Warning: this ship's position is months out of date.

Length 21 m; draft 2.5 m.

Type: Tow > 200 m length. MMSI: 367005760.

Date/timePositionNaut miles runAvg speedWind from/ knotsBaromVisibWave heightAir tempDewpointWater temp
2017-Aug-25 04:16N 31°31' W 091°30'35 7.5
2017-Aug-24 23:33N 31°60' W 091°05'6 7.6
2017-Aug-24 22:42N 32°06' W 091°06'2 7.6
2017-Aug-24 22:30N 32°08' W 091°06'4 8.6
2017-Aug-24 22:01N 32°07' W 091°01'5 9.1
2017-Aug-24 21:30N 32°12' W 090°60'5 9.2
2017-Aug-24 21:00N 32°16' W 090°58'4 9.0
2017-Aug-24 20:30N 32°19' W 090°54'2 4.9
2017-Aug-24 20:00N 32°21' W 090°53'1 2.7
2017-Aug-24 19:30N 32°23' W 090°53'0 0.0
2017-Aug-24 19:00N 32°23' W 090°53'0 0.3
2017-Aug-24 18:31N 32°23' W 090°52'0 0.2
2017-Aug-24 18:00N 32°23' W 090°53'0 0.1
2017-Aug-24 17:30N 32°23' W 090°53'0 0.0
2017-Aug-24 17:00N 32°23' W 090°53'0 0.2
2017-Aug-24 16:31N 32°23' W 090°53'0 0.0
2017-Aug-24 16:00N 32°23' W 090°53'0 0.0
2017-Aug-24 15:30N 32°23' W 090°53'0 0.0
2017-Aug-24 15:00N 32°23' W 090°53'0 0.0
2017-Aug-24 14:30N 32°23' W 090°53'0 0.2
2017-Aug-24 14:00N 32°23' W 090°53'0 0.0
2017-Aug-24 13:30N 32°23' W 090°53'0 0.0
2017-Aug-24 13:00N 32°23' W 090°53'0 0.2
2017-Aug-24 12:30N 32°23' W 090°53'0 0.2
2017-Aug-24 12:00N 32°23' W 090°53'0 0.0
2017-Aug-24 11:31N 32°23' W 090°53'0 0.0
2017-Aug-24 11:00N 32°23' W 090°53'0 0.0
2017-Aug-24 10:30N 32°23' W 090°53'0 0.0
2017-Aug-24 10:01N 32°23' W 090°53'0 0.0
2017-Aug-24 09:30N 32°23' W 090°53'0 0.0
2017-Aug-24 09:00N 32°23' W 090°53'0 0.0
2017-Aug-24 08:30N 32°23' W 090°53'0 0.0
2017-Aug-24 08:00N 32°23' W 090°53'0 0.0
2017-Aug-24 07:30N 32°23' W 090°53'0 0.0
2017-Aug-24 07:00N 32°23' W 090°53'0 0.0
2017-Aug-24 06:30N 32°23' W 090°53'0 0.0
2017-Aug-24 06:00N 32°23' W 090°53'0 0.0
2017-Aug-24 05:30N 32°23' W 090°53'0 0.0
2017-Aug-24 05:00N 32°23' W 090°53'0 0.0
2017-Aug-24 04:30N 32°23' W 090°53'0 0.0
2017-Aug-24 04:00N 32°23' W 090°53'0 0.0
2017-Aug-24 03:30N 32°23' W 090°53'0 0.0
2017-Aug-24 03:00N 32°23' W 090°53'0 0.0
2017-Aug-24 02:30N 32°23' W 090°53'0 0.0
2017-Aug-24 02:00N 32°23' W 090°53'0 0.0
2017-Aug-24 01:30N 32°23' W 090°53'0 0.0
2017-Aug-24 01:00N 32°23' W 090°53'0 0.0
2017-Aug-24 00:30N 32°23' W 090°53'0 0.0
2017-Aug-24 00:00N 32°23' W 090°53'1 1.7
2017-Aug-23 23:30N 32°23' W 090°54'0 0.0
2017-Aug-23 23:00N 32°23' W 090°54'0 0.1
2017-Aug-23 22:30N 32°23' W 090°54'0 0.0
2017-Aug-23 22:00N 32°23' W 090°54'0 0.3
2017-Aug-23 21:30N 32°23' W 090°53'1 1.7
2017-Aug-23 21:00N 32°23' W 090°52'0 0.1
2017-Aug-23 20:30N 32°23' W 090°53'0 0.2
2017-Aug-23 20:00N 32°23' W 090°53'0 0.1
2017-Aug-23 19:30N 32°23' W 090°53'0 0.1
2017-Aug-23 19:00N 32°23' W 090°53'0 0.1
2017-Aug-23 18:30N 32°23' W 090°53'0 0.1
2017-Aug-23 18:00N 32°23' W 090°53'0 0.0
2017-Aug-23 17:30N 32°23' W 090°53'0 0.0
2017-Aug-23 17:00N 32°23' W 090°53'0 0.0
2017-Aug-23 16:30N 32°23' W 090°53'0 0.0
2017-Aug-23 16:00N 32°23' W 090°53'0 0.0
2017-Aug-23 15:30N 32°23' W 090°53'0 0.0
2017-Aug-23 15:00N 32°23' W 090°53'0 0.2
2017-Aug-23 14:00N 32°23' W 090°52'0 0.2
2017-Aug-23 13:30N 32°23' W 090°53'1 1.8
2017-Aug-23 13:00N 32°23' W 090°54'0 0.2
2017-Aug-23 12:30N 32°23' W 090°53'1 1.7
2017-Aug-23 12:00N 32°23' W 090°53'0 0.0
2017-Aug-23 11:30N 32°23' W 090°53'0 0.0
2017-Aug-23 11:00N 32°23' W 090°53'0 0.0
2017-Aug-23 10:31N 32°23' W 090°53'0 0.0
2017-Aug-23 10:00N 32°23' W 090°53'0 0.0
2017-Aug-23 09:30N 32°23' W 090°53'0 0.0
2017-Aug-23 09:00N 32°23' W 090°53'0 0.0
2017-Aug-23 08:30N 32°23' W 090°53'0 0.0
2017-Aug-23 08:00N 32°23' W 090°53'0 0.0
2017-Aug-23 07:30N 32°23' W 090°53'0 0.0
2017-Aug-23 07:00N 32°23' W 090°53'0 0.0
2017-Aug-23 06:30N 32°23' W 090°53'0 0.0
2017-Aug-23 06:00N 32°23' W 090°53'0 0.0
2017-Aug-23 05:30N 32°23' W 090°53'0 0.0
2017-Aug-23 05:00N 32°23' W 090°53'0 0.0
2017-Aug-23 04:31N 32°23' W 090°53'0 0.0
2017-Aug-23 04:00N 32°23' W 090°53'0 0.0
2017-Aug-23 03:30N 32°23' W 090°53'0 0.0
2017-Aug-23 03:00N 32°23' W 090°53'0 0.0
2017-Aug-23 02:30N 32°23' W 090°53'0 0.0
2017-Aug-23 02:00N 32°23' W 090°53'0 0.0
2017-Aug-23 01:30N 32°23' W 090°53'0 0.0
2017-Aug-23 01:00N 32°23' W 090°53'0 0.0
2017-Aug-23 00:30N 32°23' W 090°53'0 0.0
2017-Aug-23 00:00N 32°23' W 090°53'0 0.0
2017-Aug-22 23:30N 32°23' W 090°53'0 0.0
2017-Aug-22 23:00N 32°23' W 090°53'1 1.2
2017-Aug-22 22:30N 32°22' W 090°53'1 1.9
2017-Aug-22 22:00N 32°23' W 090°54'0 0.2
2017-Aug-22 21:30N 32°23' W 090°53'0 0.2
2017-Aug-22 21:00N 32°23' W 090°54'1 2.0
2017-Aug-22 20:30N 32°23' W 090°52'0 0.3
2017-Aug-22 20:00N 32°23' W 090°53'0 0.1
2017-Aug-22 19:30N 32°23' W 090°53'0 0.0
2017-Aug-22 19:01N 32°23' W 090°53'0 0.0
2017-Aug-22 18:30N 32°23' W 090°53'0 0.0
2017-Aug-22 18:00N 32°23' W 090°53'0 0.0
2017-Aug-22 17:30N 32°23' W 090°53'0 0.0
2017-Aug-22 17:00N 32°23' W 090°53'0 0.0
2017-Aug-22 16:30N 32°23' W 090°53'0 0.8
2017-Aug-22 16:00N 32°22' W 090°52'1 1.9
2017-Aug-22 15:30N 32°23' W 090°54'0 0.1
2017-Aug-22 15:00N 32°23' W 090°54'1 1.7
2017-Aug-22 14:30N 32°23' W 090°53'0 0.0
2017-Aug-22 14:00N 32°23' W 090°53'0 0.0
2017-Aug-22 13:30N 32°23' W 090°53'0 0.2
2017-Aug-22 13:01N 32°23' W 090°53'0 0.2
2017-Aug-22 12:30N 32°23' W 090°53'0 0.1
2017-Aug-22 12:00N 32°23' W 090°53'0 0.0
2017-Aug-22 11:30N 32°23' W 090°53'0 0.0
2017-Aug-22 11:00N 32°23' W 090°53'0 0.0
2017-Aug-22 10:30N 32°23' W 090°53'0 0.0
2017-Aug-22 10:00N 32°23' W 090°53'0 0.0
2017-Aug-22 09:30N 32°23' W 090°53'0 0.0
2017-Aug-22 09:00N 32°23' W 090°53'0 0.0
2017-Aug-22 08:30N 32°23' W 090°53'0 0.0
2017-Aug-22 08:00N 32°23' W 090°53'0 0.0
2017-Aug-22 07:30N 32°23' W 090°53'0 0.0
2017-Aug-22 07:00N 32°23' W 090°53'0 0.0
2017-Aug-22 06:30N 32°23' W 090°53'0 0.0
2017-Aug-22 06:00N 32°23' W 090°53'0 0.0
2017-Aug-22 05:30N 32°23' W 090°53'0 0.0
2017-Aug-22 05:00N 32°23' W 090°53'0 0.0
2017-Aug-22 04:30N 32°23' W 090°53'0 0.0
2017-Aug-22 04:00N 32°23' W 090°53'0 0.0
2017-Aug-22 03:30N 32°23' W 090°53'0 0.0
2017-Aug-22 03:00N 32°23' W 090°53'0 0.0
2017-Aug-22 02:30N 32°23' W 090°53'0 0.0
2017-Aug-22 02:00N 32°23' W 090°53'0 0.0
2017-Aug-22 01:30N 32°23' W 090°53'0 0.0
2017-Aug-22 01:00N 32°23' W 090°53'0 0.0
2017-Aug-22 00:30N 32°23' W 090°53'0 0.0
2017-Aug-22 00:00N 32°23' W 090°53'0 0.0
2017-Aug-21 23:30N 32°23' W 090°53'0 0.0
2017-Aug-21 23:00N 32°23' W 090°53'0 0.0
2017-Aug-21 22:30N 32°23' W 090°53'0 0.0
2017-Aug-21 22:00N 32°23' W 090°53'0 0.0
2017-Aug-21 21:30N 32°23' W 090°53'0 0.0
2017-Aug-21 21:00N 32°23' W 090°53'0 0.0
2017-Aug-21 20:30N 32°23' W 090°53'0 0.0
2017-Aug-21 20:00N 32°23' W 090°53'0 0.0
2017-Aug-21 19:30N 32°23' W 090°53'0 0.0
2017-Aug-21 19:00N 32°23' W 090°53'0 0.0
2017-Aug-21 18:30N 32°23' W 090°53'0 0.0
2017-Aug-21 18:00N 32°23' W 090°53'0 0.0
2017-Aug-21 17:30N 32°23' W 090°53'0 0.0
2017-Aug-21 17:00N 32°23' W 090°53'0 0.0
2017-Aug-21 16:30N 32°23' W 090°53'0 0.0
2017-Aug-21 16:01N 32°23' W 090°53'0 0.0
2017-Aug-21 15:30N 32°23' W 090°53'0 0.3
2017-Aug-21 15:01N 32°23' W 090°53'0 0.2
2017-Aug-21 14:30N 32°23' W 090°53'0 0.1
2017-Aug-21 14:00N 32°23' W 090°53'0 0.0
2017-Aug-21 13:30N 32°23' W 090°53'0 0.0
2017-Aug-21 13:00N 32°23' W 090°53'0 0.0
2017-Aug-21 12:30N 32°23' W 090°53'0 0.0
2017-Aug-21 12:00N 32°23' W 090°53'0 0.0
2017-Aug-21 11:30N 32°23' W 090°53'1 2.1
2017-Aug-21 11:01N 32°22' W 090°53'2 3.8
2017-Aug-21 10:30N 32°20' W 090°54'3 5.6
2017-Aug-21 10:00N 32°21' W 090°57'3 6.0
2017-Aug-21 09:30N 32°22' W 091°00'3 6.7
2017-Aug-21 09:00N 32°26' W 091°01'4 7.5
2017-Aug-21 08:31N 32°27' W 091°05'3 6.9
2017-Aug-21 08:00N 32°30' W 091°07'4 7.6
2017-Aug-21 07:30N 32°34' W 091°06'4 7.4
2017-Aug-21 07:00N 32°37' W 091°09'  

Dump ship's entire track history